Time;durP1;ratioP1;P1;durP2;ratioP2;P2;SDS_P1;SDS_P2;PMS_P1;PMS_P2;Temp;Humidity;BMP_temperature;BMP_pressure;BME280_temperature;BME280_humidity;BME280_pressure;Samples;Min_cycle;Max_cycle;Signal;HPM_P1;HPM_P2
2021/06/16 00:00:15;;;;;;;7.50;2.80;;;;;;;13.33;70.54;101232.27;124875;1092;64294;-77
2021/06/16 00:02:42;;;;;;;3.30;1.57;;;;;;;13.29;70.76;101225.63;124936;1093;64255;-76
2021/06/16 00:05:18;;;;;;;3.90;1.20;;;;;;;13.25;71.04;101227.78;124887;1093;64282;-76
2021/06/16 00:07:45;;;;;;;6.27;1.77;;;;;;;13.21;71.43;101235.30;124957;1092;64734;-77
2021/06/16 00:10:15;;;;;;;6.43;2.10;;;;;;;13.20;71.57;101232.84;124917;1093;64261;-79
2021/06/16 00:12:42;;;;;;;6.13;2.00;;;;;;;13.18;71.65;101232.19;124721;1093;64304;-76
2021/06/16 00:15:15;;;;;;;5.13;2.03;;;;;;;13.16;71.64;101223.55;124717;1093;64751;-77
2021/06/16 00:17:42;;;;;;;7.53;2.03;;;;;;;13.16;71.89;101226.21;124819;1093;64291;-78
2021/06/16 00:20:10;;;;;;;2.67;1.50;;;;;;;13.13;72.03;101229.22;124904;1093;64296;-76
2021/06/16 00:22:38;;;;;;;2.95;1.50;;;;;;;13.11;72.05;101226.75;124861;1093;64300;-77
2021/06/16 00:25:07;;;;;;;4.83;1.67;;;;;;;13.06;72.15;101221.94;124968;1093;64211;-79
2021/06/16 00:27:34;;;;;;;6.07;1.83;;;;;;;13.03;72.30;101224.97;124968;1093;64286;-77
2021/06/16 00:30:04;;;;;;;3.23;1.93;;;;;;;12.99;72.68;101221.00;124841;1092;64298;-78
2021/06/16 00:32:32;;;;;;;5.65;1.85;;;;;;;12.95;72.52;101225.02;124860;1093;64278;-78
2021/06/16 00:34:59;;;;;;;4.97;1.80;;;;;;;12.90;72.72;101222.08;125004;1092;64560;-78
2021/06/16 00:37:26;;;;;;;4.93;2.47;;;;;;;12.85;72.72;101224.42;124674;1093;65214;-76
2021/06/16 00:39:54;;;;;;;8.70;1.90;;;;;;;12.79;72.83;101222.46;124718;1093;64225;-76
2021/06/16 00:42:24;;;;;;;4.07;2.33;;;;;;;12.74;72.96;101222.17;124795;1093;64397;-78
2021/06/16 00:44:52;;;;;;;6.87;2.30;;;;;;;12.71;73.19;101217.19;124788;1093;64313;-76
2021/06/16 00:47:19;;;;;;;8.07;2.20;;;;;;;12.69;72.98;101221.86;124835;1093;64467;-76
2021/06/16 00:49:46;;;;;;;8.70;2.23;;;;;;;12.66;73.12;101223.05;124855;1092;64264;-76
2021/06/16 00:52:13;;;;;;;6.83;2.27;;;;;;;12.64;73.51;101219.73;124817;1092;64231;-77
2021/06/16 00:54:40;;;;;;;3.33;2.20;;;;;;;12.60;73.71;101216.61;124864;1092;64289;-77
2021/06/16 00:57:08;;;;;;;5.27;2.03;;;;;;;12.58;73.62;101223.94;124632;1092;64320;-75
2021/06/16 01:00:07;;;;;;;6.13;1.93;;;;;;;12.55;73.72;101213.63;124869;1093;64262;-76
2021/06/16 01:02:46;;;;;;;6.20;1.83;;;;;;;12.51;73.87;101216.81;124877;1093;64527;-76
2021/06/16 01:05:17;;;;;;;4.07;1.63;;;;;;;12.45;74.06;101218.33;124923;1092;64272;-77
2021/06/16 01:07:51;;;;;;;6.67;2.00;;;;;;;12.41;74.22;101215.21;124690;1093;64448;-76
2021/06/16 01:10:22;;;;;;;5.47;1.97;;;;;;;12.38;74.52;101214.72;124857;1093;64475;-77
2021/06/16 01:13:13;;;;;;;4.73;2.20;;;;;;;12.37;75.05;101210.42;124760;1092;64390;-76
2021/06/16 01:15:52;;;;;;;5.90;1.80;;;;;;;12.35;74.68;101207.10;125006;1093;64747;-78
2021/06/16 01:18:21;;;;;;;8.17;2.63;;;;;;;12.35;75.00;101209.77;125135;1093;64310;-78
2021/06/16 01:20:50;;;;;;;7.27;2.00;;;;;;;12.33;75.32;101212.59;124948;1093;64303;-79
2021/06/16 01:23:35;;;;;;;5.47;1.93;;;;;;;12.31;75.50;101201.30;124963;1093;64339;-76
2021/06/16 01:26:03;;;;;;;3.13;1.67;;;;;;;12.29;75.06;101210.45;124900;1093;64285;-76
2021/06/16 01:28:36;;;;;;;4.83;1.80;;;;;;;12.24;75.36;101206.48;124815;1093;64453;-77
2021/06/16 01:31:05;;;;;;;4.77;1.93;;;;;;;12.21;75.47;101211.30;124843;1092;64317;-77
2021/06/16 01:33:33;;;;;;;4.83;2.30;;;;;;;12.16;75.43;101209.17;124971;1093;64397;-77
2021/06/16 01:36:00;;;;;;;4.80;2.00;;;;;;;12.13;75.88;101214.81;124996;1093;64323;-76
2021/06/16 01:38:27;;;;;;;5.10;2.20;;;;;;;12.09;75.80;101208.22;125005;1093;64288;-77
2021/06/16 01:40:57;;;;;;;6.93;2.20;;;;;;;12.07;75.66;101210.22;125098;1092;64350;-76
2021/06/16 01:43:26;;;;;;;4.80;2.00;;;;;;;12.06;76.14;101208.54;124984;1093;65481;-76
2021/06/16 01:45:56;;;;;;;5.17;2.53;;;;;;;12.03;76.22;101208.90;125012;1093;64281;-77
2021/06/16 01:48:24;;;;;;;5.05;1.85;;;;;;;12.01;76.62;101208.23;124892;1093;64288;-76
2021/06/16 01:50:53;;;;;;;7.53;2.23;;;;;;;11.99;76.61;101203.09;125483;1093;64384;-76
2021/06/16 01:53:21;;;;;;;5.40;2.23;;;;;;;11.97;76.62;101204.27;125650;1093;64343;-77
2021/06/16 01:55:50;;;;;;;7.90;2.67;;;;;;;11.96;76.83;101202.59;125089;1093;64291;-76
2021/06/16 01:58:18;;;;;;;8.20;2.73;;;;;;;11.93;76.85;101197.63;124884;1093;64307;-76
2021/06/16 02:00:47;;;;;;;7.57;2.83;;;;;;;11.90;76.85;101204.13;124940;1092;64241;-76
2021/06/16 02:03:15;;;;;;;8.75;3.00;;;;;;;11.88;77.44;101200.80;124736;1093;64259;-76
2021/06/16 02:05:42;;;;;;;7.93;2.90;;;;;;;11.87;77.02;101206.25;124904;1093;64423;-77
2021/06/16 02:08:16;;;;;;;5.10;2.30;;;;;;;11.83;77.52;101198.60;124835;1092;65024;-78
2021/06/16 02:10:47;;;;;;;8.60;2.75;;;;;;;11.81;77.45;101203.26;125107;1093;64354;-78
2021/06/16 02:13:25;;;;;;;5.95;2.60;;;;;;;11.79;77.13;101199.97;125097;1093;64287;-78
2021/06/16 02:16:13;;;;;;;4.77;2.17;;;;;;;11.77;77.51;101199.31;124934;1093;64205;-77
2021/06/16 02:18:53;;;;;;;7.17;3.40;;;;;;;11.74;77.49;101196.98;124843;1093;64319;-77
2021/06/16 02:21:21;;;;;;;7.75;2.70;;;;;;;11.72;77.65;101198.16;125455;1093;64264;-77
2021/06/16 02:23:48;;;;;;;5.93;2.77;;;;;;;11.68;77.79;101194.17;125000;1093;64479;-78
2021/06/16 02:26:16;;;;;;;7.33;2.50;;;;;;;11.63;77.76;101190.20;125202;1093;64228;-78
2021/06/16 02:28:44;;;;;;;4.83;2.67;;;;;;;11.59;78.05;101188.88;124772;1092;64329;-76
2021/06/16 02:31:12;;;;;;;5.27;2.60;;;;;;;11.56;78.13;101185.72;125059;1092;64340;-78
2021/06/16 02:33:40;;;;;;;6.93;2.53;;;;;;;11.52;78.07;101184.42;124972;1093;64270;-79
2021/06/16 02:36:12;;;;;;;10.63;3.70;;;;;;;11.50;78.13;101189.08;124994;1093;64241;-76
2021/06/16 02:38:43;;;;;;;6.07;2.17;;;;;;;11.48;77.94;101188.41;125076;1092;64291;-76
2021/06/16 02:41:14;;;;;;;9.60;3.23;;;;;;;11.45;77.85;101186.90;125089;1093;64282;-77
2021/06/16 02:43:41;;;;;;;7.40;2.13;;;;;;;11.42;77.95;101179.28;124928;1092;64258;-78
2021/06/16 02:46:11;;;;;;;7.87;2.70;;;;;;;11.39;78.69;101179.59;124772;1093;64362;-76
2021/06/16 02:48:44;;;;;;;8.35;3.30;;;;;;;11.36;78.27;101186.09;124950;1092;64285;-76
2021/06/16 02:51:12;;;;;;;5.07;2.60;;;;;;;11.32;79.09;101187.41;124720;1093;64291;-77
2021/06/16 02:53:41;;;;;;;6.37;2.90;;;;;;;11.27;79.18;101179.13;124881;1093;64317;-76
2021/06/16 02:56:10;;;;;;;6.93;2.70;;;;;;;11.23;78.74;101175.97;124902;1092;64432;-76
2021/06/16 02:58:41;;;;;;;4.67;3.13;;;;;;;11.20;78.87;101176.32;125050;1092;64330;-75
2021/06/16 03:01:14;;;;;;;6.73;3.00;;;;;;;11.17;78.94;101170.51;125038;1093;64384;-78
2021/06/16 03:03:46;;;;;;;6.67;2.77;;;;;;;11.15;79.31;101162.70;124924;1092;64243;-78
2021/06/16 03:06:17;;;;;;;5.80;3.17;;;;;;;11.15;79.84;101172.50;124786;1093;64397;-77
2021/06/16 03:08:45;;;;;;;4.63;3.03;;;;;;;11.14;79.51;101171.67;125153;1093;64234;-77
2021/06/16 03:11:14;;;;;;;6.67;2.70;;;;;;;11.14;79.31;101166.36;125498;1092;64307;-77
2021/06/16 03:13:45;;;;;;;7.95;2.95;;;;;;;11.15;79.88;101162.70;125063;1093;64304;-77
2021/06/16 03:16:14;;;;;;;5.25;2.35;;;;;;;11.16;79.65;101164.38;125426;1093;64285;-78
2021/06/16 03:18:46;;;;;;;7.77;2.83;;;;;;;11.16;79.49;101163.55;125237;1092;64336;-77
2021/06/16 03:21:16;;;;;;;4.73;3.17;;;;;;;11.14;79.64;101166.36;124780;1093;64355;-75
2021/06/16 03:23:46;;;;;;;8.10;2.97;;;;;;;11.15;79.56;101168.01;124801;1093;64278;-80
2021/06/16 03:26:15;;;;;;;6.50;3.20;;;;;;;11.17;79.66;101166.02;124993;1093;64293;-77
2021/06/16 03:28:43;;;;;;;7.20;2.47;;;;;;;11.19;80.10;101165.86;125001;1092;64923;-77
2021/06/16 03:31:12;;;;;;;7.37;2.70;;;;;;;11.20;80.18;101160.39;125252;1093;64236;-76
2021/06/16 03:33:41;;;;;;;6.87;2.83;;;;;;;11.22;80.11;101157.58;124967;1093;64452;-76
2021/06/16 03:36:11;;;;;;;5.67;2.80;;;;;;;11.25;80.10;101157.22;125094;1093;64284;-76
2021/06/16 03:38:41;;;;;;;6.87;2.63;;;;;;;11.28;80.14;101164.84;124696;1093;64860;-78
2021/06/16 03:41:09;;;;;;;6.70;3.40;;;;;;;11.28;80.14;101162.19;125020;1093;64376;-77
2021/06/16 03:43:38;;;;;;;6.60;3.20;;;;;;;11.32;80.05;101166.16;125121;1093;64336;-76
2021/06/16 03:46:06;;;;;;;7.17;3.10;;;;;;;11.36;79.94;101164.02;124992;1093;64399;-76
2021/06/16 03:48:34;;;;;;;5.37;2.80;;;;;;;11.39;79.63;101169.83;124887;1093;64326;-78
2021/06/16 03:51:04;;;;;;;5.57;2.20;;;;;;;11.45;79.71;101162.98;124911;1093;64237;-76
2021/06/16 03:53:32;;;;;;;7.07;2.50;;;;;;;11.49;79.46;101164.31;125045;1093;64288;-76
2021/06/16 03:56:00;;;;;;;4.80;3.10;;;;;;;11.56;79.75;101164.46;124956;1093;64287;-76
2021/06/16 03:58:27;;;;;;;5.90;2.80;;;;;;;11.61;79.31;101159.48;124869;1093;64373;-76
2021/06/16 04:00:55;;;;;;;7.53;2.90;;;;;;;11.67;79.81;101158.80;124910;1093;64208;-78
2021/06/16 04:03:25;;;;;;;4.27;2.80;;;;;;;11.73;79.38;101163.44;124837;1093;64744;-76
2021/06/16 04:05:52;;;;;;;4.90;2.70;;;;;;;11.81;78.82;101160.73;124903;1093;64243;-79
2021/06/16 04:08:21;;;;;;;10.55;3.10;;;;;;;11.90;78.93;101158.08;124902;1093;64293;-78
2021/06/16 04:10:50;;;;;;;6.93;2.80;;;;;;;11.97;78.46;101156.41;124925;1093;64361;-76
2021/06/16 04:13:17;;;;;;;6.60;2.77;;;;;;;12.05;78.10;101156.38;124859;1093;64299;-77
2021/06/16 04:15:44;;;;;;;4.43;2.00;;;;;;;12.14;77.90;101151.84;124902;1093;64272;-77
2021/06/16 04:18:12;;;;;;;6.83;2.20;;;;;;;12.20;77.72;101151.97;124849;1092;64208;-76
2021/06/16 04:20:39;;;;;;;7.03;2.63;;;;;;;12.28;77.64;101158.23;124929;1093;64204;-76
2021/06/16 04:23:06;;;;;;;6.03;3.17;;;;;;;12.34;77.64;101152.22;124863;1093;64377;-75
2021/06/16 04:25:33;;;;;;;4.13;2.80;;;;;;;12.42;77.66;101157.50;124870;1093;64220;-77
2021/06/16 04:28:00;;;;;;;11.57;2.70;;;;;;;12.47;77.24;101156.97;124921;1092;64282;-77
2021/06/16 04:30:28;;;;;;;5.05;2.30;;;;;;;12.51;77.00;101151.11;124936;1093;64627;-77
2021/06/16 04:32:55;;;;;;;7.87;3.37;;;;;;;12.58;76.90;101153.89;124850;1093;64371;-78
2021/06/16 04:35:23;;;;;;;4.57;2.73;;;;;;;12.65;76.76;101154.86;124745;1093;64438;-76
2021/06/16 04:37:50;;;;;;;4.80;2.75;;;;;;;12.75;76.57;101154.60;124655;1093;64211;-75
2021/06/16 04:40:17;;;;;;;5.23;2.37;;;;;;;12.85;76.15;101155.20;124653;1093;65491;-79
2021/06/16 04:42:44;;;;;;;7.10;2.23;;;;;;;12.96;76.07;101152.13;124645;1092;64284;-76
2021/06/16 04:45:12;;;;;;;4.25;2.50;;;;;;;13.06;75.77;101147.36;124830;1093;64236;-77
2021/06/16 04:47:40;;;;;;;4.93;2.20;;;;;;;13.16;75.59;101143.63;124635;1093;64893;-76
2021/06/16 04:50:09;;;;;;;4.63;2.00;;;;;;;13.24;75.23;101146.22;124787;1092;64699;-77
2021/06/16 04:52:37;;;;;;;6.63;2.80;;;;;;;13.32;75.00;101146.14;124898;1093;64207;-75
2021/06/16 04:55:07;;;;;;;4.80;2.00;;;;;;;13.40;74.83;101146.06;124890;1093;64308;-77
2021/06/16 04:57:34;;;;;;;5.63;2.03;;;;;;;13.46;74.59;101148.00;124916;1093;64214;-77
2021/06/16 05:00:01;;;;;;;5.80;2.30;;;;;;;13.53;74.59;101142.77;124845;1093;64297;-76
2021/06/16 05:02:28;;;;;;;3.50;2.25;;;;;;;13.63;74.29;101142.50;124878;1092;64732;-76
2021/06/16 05:04:55;;;;;;;4.80;2.10;;;;;;;13.71;73.96;101137.08;124675;1093;64297;-76
2021/06/16 05:07:22;;;;;;;5.30;2.30;;;;;;;13.81;73.71;101134.11;124980;1093;64311;-77
2021/06/16 05:09:49;;;;;;;7.20;3.35;;;;;;;13.93;73.84;101137.15;124895;1092;64349;-78
2021/06/16 05:12:16;;;;;;;4.70;2.87;;;;;;;14.04;73.12;101134.00;124785;1092;64255;-74
2021/06/16 05:14:43;;;;;;;3.60;2.30;;;;;;;14.16;72.69;101131.69;124856;1093;64285;-72
2021/06/16 05:17:10;;;;;;;4.00;2.17;;;;;;;14.27;72.53;101125.84;124832;1093;64304;-73
2021/06/16 05:19:38;;;;;;;3.30;2.20;;;;;;;14.38;72.63;101132.53;124671;1093;64371;-73
2021/06/16 05:22:10;;;;;;;5.70;2.40;;;;;;;14.48;72.12;101131.20;124838;1093;64326;-73
2021/06/16 05:24:37;;;;;;;5.23;1.90;;;;;;;14.60;71.85;101128.91;124837;1093;64549;-73
2021/06/16 05:27:06;;;;;;;4.97;1.77;;;;;;;14.73;72.14;101130.02;124836;1093;64214;-74
2021/06/16 05:29:34;;;;;;;6.13;1.77;;;;;;;14.92;71.88;101123.20;124738;1092;64779;-73
2021/06/16 05:32:02;;;;;;;6.25;2.10;;;;;;;15.08;71.05;101121.06;124601;1093;64403;-74
2021/06/16 05:34:29;;;;;;;5.73;3.50;;;;;;;15.21;70.69;101120.34;124490;1093;64354;-73
2021/06/16 05:36:56;;;;;;;7.10;2.30;;;;;;;15.37;70.49;101116.55;124609;1093;64294;-73
2021/06/16 05:39:24;;;;;;;3.50;1.93;;;;;;;15.47;69.99;101127.72;124834;1093;64323;-73
2021/06/16 05:41:51;;;;;;;11.07;8.43;;;;;;;15.62;69.38;101118.73;124905;1093;64934;-73
2021/06/16 05:44:19;;;;;;;8.37;2.40;;;;;;;15.78;69.27;101110.41;124856;1093;64285;-73
2021/06/16 05:46:46;;;;;;;5.50;1.50;;;;;;;15.96;68.35;101115.23;124872;1093;64288;-74
2021/06/16 05:49:13;;;;;;;4.83;1.60;;;;;;;16.09;67.66;101117.13;124845;1093;64342;-73
2021/06/16 05:51:40;;;;;;;5.47;1.50;;;;;;;16.20;67.23;101108.52;124660;1092;64323;-74
2021/06/16 05:54:10;;;;;;;5.37;1.80;;;;;;;16.33;66.33;101107.72;124863;1093;64310;-73
2021/06/16 05:56:39;;;;;;;7.67;2.47;;;;;;;16.43;66.09;101108.16;124992;1093;64307;-74
2021/06/16 05:59:07;;;;;;;4.10;1.73;;;;;;;16.53;65.88;101107.73;124860;1093;64304;-72
2021/06/16 06:01:35;;;;;;;3.43;2.00;;;;;;;16.64;65.37;101115.19;124842;1093;64298;-72
2021/06/16 06:04:05;;;;;;;18.27;2.17;;;;;;;16.77;65.23;101105.52;124987;1093;64310;-74
2021/06/16 06:06:36;;;;;;;5.23;2.00;;;;;;;16.91;64.86;101107.17;124675;1093;64352;-76
2021/06/16 06:09:10;;;;;;;4.77;2.40;;;;;;;16.98;64.66;101102.66;124706;1093;64261;-75
2021/06/16 06:11:37;;;;;;;4.43;2.10;;;;;;;17.10;64.39;101100.16;124813;1093;64281;-78
2021/06/16 06:14:05;;;;;;;4.17;1.87;;;;;;;17.19;64.24;101100.76;124817;1093;65014;-74
2021/06/16 06:16:33;;;;;;;3.80;1.85;;;;;;;17.24;63.86;101109.02;124899;1093;64289;-73
2021/06/16 06:19:01;;;;;;;4.83;2.03;;;;;;;17.28;63.21;101094.16;124644;1093;64237;-75
2021/06/16 06:21:32;;;;;;;10.13;4.47;;;;;;;17.34;63.62;101098.69;124806;1093;64291;-74
2021/06/16 06:24:00;;;;;;;5.50;2.13;;;;;;;17.39;63.05;101096.19;124667;1092;64378;-73
2021/06/16 06:26:34;;;;;;;5.90;2.13;;;;;;;17.47;63.05;101097.83;124722;1093;64376;-73
2021/06/16 06:29:02;;;;;;;6.60;2.33;;;;;;;17.54;62.96;101095.94;124646;1092;64250;-73
2021/06/16 06:31:31;;;;;;;5.40;2.30;;;;;;;17.61;62.81;101088.69;124615;1093;64349;-74
2021/06/16 06:33:58;;;;;;;10.33;6.03;;;;;;;17.70;62.70;101091.95;124801;1093;64268;-73
2021/06/16 06:36:30;;;;;;;9.80;4.70;;;;;;;17.73;62.97;101086.99;124763;1092;64368;-74
2021/06/16 06:38:57;;;;;;;8.13;3.00;;;;;;;17.80;62.63;101095.02;124664;1093;64275;-75
2021/06/16 06:41:24;;;;;;;7.90;2.30;;;;;;;17.85;62.71;101087.20;124727;1092;64332;-75
2021/06/16 06:43:52;;;;;;;5.45;1.80;;;;;;;17.92;62.99;101077.23;124880;1093;64320;-74
2021/06/16 06:46:19;;;;;;;2.90;1.70;;;;;;;18.01;62.24;101083.18;124787;1092;64308;-73
2021/06/16 06:48:46;;;;;;;5.30;2.15;;;;;;;18.13;62.52;101080.65;125166;1092;64310;-73
2021/06/16 06:51:13;;;;;;;3.43;2.00;;;;;;;18.28;62.53;101081.17;124858;1093;64444;-73
2021/06/16 06:53:40;;;;;;;7.90;2.63;;;;;;;18.42;61.67;101083.76;124832;1093;64357;-73
2021/06/16 06:56:08;;;;;;;6.63;2.30;;;;;;;18.54;61.15;101079.34;124804;1093;64281;-73
2021/06/16 06:58:35;;;;;;;4.80;1.80;;;;;;;18.65;60.91;101075.12;124899;1092;64301;-74
2021/06/16 07:01:02;;;;;;;6.13;1.77;;;;;;;18.77;60.67;101078.74;124826;1093;64371;-74
2021/06/16 07:03:32;;;;;;;5.67;1.70;;;;;;;18.90;60.31;101084.02;124749;1092;64336;-74
2021/06/16 07:05:59;;;;;;;8.87;5.07;;;;;;;19.04;60.47;101081.20;124997;1093;64925;-75
2021/06/16 07:08:26;;;;;;;5.50;2.23;;;;;;;19.18;60.14;101081.91;124933;1093;64272;-73
2021/06/16 07:10:54;;;;;;;4.80;1.70;;;;;;;19.31;59.50;101077.20;124967;1092;64280;-73
2021/06/16 07:13:21;;;;;;;5.07;2.00;;;;;;;19.46;59.79;101063.38;124891;1092;64297;-72
2021/06/16 07:16:05;;;;;;;6.17;1.90;;;;;;;19.66;59.25;101062.34;124850;1092;64176;-73
2021/06/16 07:18:33;;;;;;;5.40;3.80;;;;;;;19.74;58.47;101067.42;124909;1092;64377;-73
2021/06/16 07:21:00;;;;;;;25.20;17.20;;;;;;;19.78;57.92;101071.30;124768;1092;64368;-73
2021/06/16 07:23:27;;;;;;;7.50;4.10;;;;;;;19.79;56.93;101072.96;124822;1093;64211;-72
2021/06/16 07:25:54;;;;;;;6.67;2.23;;;;;;;19.87;58.02;101064.58;124891;1092;64211;-73
2021/06/16 07:28:21;;;;;;;8.80;4.83;;;;;;;20.00;57.57;101057.34;124891;1093;64285;-74
2021/06/16 07:30:48;;;;;;;8.87;4.57;;;;;;;20.10;57.49;101052.23;124867;1092;64278;-75
2021/06/16 07:33:15;;;;;;;5.53;2.07;;;;;;;20.19;57.07;101050.02;124828;1093;64335;-71
2021/06/16 07:35:44;;;;;;;5.47;2.30;;;;;;;20.26;57.04;101054.27;124773;1093;64365;-75
2021/06/16 07:38:14;;;;;;;4.27;2.00;;;;;;;20.36;57.06;101048.34;125410;1093;64243;-74
2021/06/16 07:40:42;;;;;;;8.60;2.27;;;;;;;20.48;57.47;101051.03;124944;1093;64288;-74
2021/06/16 07:43:12;;;;;;;6.57;1.53;;;;;;;20.58;55.87;101039.72;125017;1092;64310;-74
2021/06/16 07:45:40;;;;;;;3.53;1.60;;;;;;;20.64;55.25;101047.70;124981;1093;64313;-75
2021/06/16 07:48:07;;;;;;;4.73;1.90;;;;;;;20.77;56.20;101035.86;124742;1092;64340;-73
2021/06/16 07:50:38;;;;;;;18.23;14.13;;;;;;;20.94;56.22;101038.67;124621;1092;64326;-73
2021/06/16 07:53:06;;;;;;;5.43;2.27;;;;;;;21.06;55.01;101046.73;124802;1093;64483;-73
2021/06/16 07:55:34;;;;;;;6.40;2.60;;;;;;;21.15;55.17;101042.64;124690;1093;64365;-73
2021/06/16 07:58:04;;;;;;;6.30;1.90;;;;;;;21.20;53.60;101039.23;124678;1093;64397;-73
2021/06/16 08:00:31;;;;;;;5.37;2.30;;;;;;;21.27;53.49;101042.61;124751;1093;64362;-74
2021/06/16 08:02:59;;;;;;;3.27;1.93;;;;;;;21.37;53.04;101040.94;124715;1093;64310;-74
2021/06/16 08:05:26;;;;;;;7.90;3.40;;;;;;;21.53;53.22;101036.72;124940;1092;64352;-74
2021/06/16 08:07:53;;;;;;;6.25;2.10;;;;;;;21.67;53.81;101039.94;124701;1093;64377;-73
2021/06/16 08:10:20;;;;;;;4.20;1.83;;;;;;;21.81;53.80;101039.68;124924;1093;64301;-73
2021/06/16 08:12:47;;;;;;;5.27;1.67;;;;;;;21.95;53.27;101043.70;124709;1093;64304;-73
2021/06/16 08:15:15;;;;;;;4.43;1.67;;;;;;;22.11;52.08;101050.22;125288;1091;64316;-73
2021/06/16 08:17:42;;;;;;;4.93;1.70;;;;;;;22.20;51.24;101040.64;125053;1092;64369;-73
2021/06/16 08:20:10;;;;;;;16.73;10.83;;;;;;;22.32;51.72;101036.02;124673;1093;64279;-74
2021/06/16 08:22:38;;;;;;;22.57;15.20;;;;;;;22.50;51.53;101043.06;124967;1092;64342;-74
2021/06/16 08:25:10;;;;;;;5.27;1.87;;;;;;;22.67;51.47;101040.34;124755;1093;65537;-75
2021/06/16 08:27:41;;;;;;;11.03;7.08;;;;;;;22.84;51.02;101034.11;125134;1093;65058;-73
2021/06/16 08:30:10;;;;;;;3.33;1.20;;;;;;;22.98;49.49;101029.98;124871;1092;64220;-73
2021/06/16 08:32:38;;;;;;;4.83;1.87;;;;;;;23.03;49.43;101023.86;124957;1093;64329;-74
2021/06/16 08:35:06;;;;;;;11.80;8.23;;;;;;;23.09;50.01;101031.78;124909;1092;64310;-73
2021/06/16 08:37:33;;;;;;;5.10;2.13;;;;;;;23.16;49.37;101018.91;124909;1093;64400;-72
2021/06/16 08:40:00;;;;;;;7.17;4.53;;;;;;;23.18;47.95;101016.74;124925;1092;64288;-73
2021/06/16 08:42:28;;;;;;;5.43;3.23;;;;;;;23.14;47.12;101007.52;125080;1093;64417;-73
2021/06/16 08:44:57;;;;;;;4.57;3.10;;;;;;;23.28;48.61;101015.25;124829;1092;64272;-74
2021/06/16 08:47:26;;;;;;;7.17;1.80;;;;;;;23.39;48.18;101012.40;124778;1092;64318;-74
2021/06/16 08:49:54;;;;;;;8.10;1.90;;;;;;;23.58;48.47;101004.77;125124;1093;64352;-72
2021/06/16 08:52:22;;;;;;;4.47;1.80;;;;;;;23.78;48.00;101003.37;125234;1093;64285;-72
2021/06/16 08:54:49;;;;;;;5.57;1.73;;;;;;;23.88;47.98;100998.05;124901;1093;64963;-72
2021/06/16 08:57:16;;;;;;;2.30;1.10;;;;;;;23.99;47.83;100997.09;124940;1092;64281;-72
2021/06/16 08:59:43;;;;;;;4.70;1.70;;;;;;;24.09;47.04;100996.34;124906;1093;64302;-72
2021/06/16 09:02:11;;;;;;;4.03;1.63;;;;;;;24.22;47.02;100998.63;124729;1093;64336;-72
2021/06/16 09:04:52;;;;;;;4.63;1.50;;;;;;;24.35;47.13;100994.66;124921;1092;64252;-72
2021/06/16 09:07:22;;;;;;;5.83;1.60;;;;;;;24.48;46.02;100995.30;124892;1093;64516;-73
2021/06/16 09:10:07;;;;;;;4.80;1.90;;;;;;;24.59;46.97;100991.63;125030;1093;64404;-74
2021/06/16 09:12:39;;;;;;;5.50;1.37;;;;;;;24.70;45.63;100997.92;125024;1093;64173;-74
2021/06/16 09:15:12;;;;;;;3.20;1.53;;;;;;;24.79;45.67;100990.91;124779;1093;64368;-75
2021/06/16 09:17:40;;;;;;;3.23;1.50;;;;;;;24.98;45.71;100991.29;125063;1093;64345;-73
2021/06/16 09:20:08;;;;;;;5.87;2.10;;;;;;;25.08;44.82;100994.05;124945;1093;64419;-73
2021/06/16 09:22:38;;;;;;;5.40;2.60;;;;;;;25.19;44.39;100984.05;124953;1093;64288;-73
2021/06/16 09:25:08;;;;;;;5.47;2.07;;;;;;;25.27;44.66;100990.88;125054;1092;64281;-74
2021/06/16 09:27:47;;;;;;;4.73;2.43;;;;;;;25.27;44.96;100985.45;124957;1093;64287;-73
2021/06/16 09:30:21;;;;;;;3.93;1.70;;;;;;;25.29;45.25;100977.86;124951;1092;64236;-73
2021/06/16 09:33:04;;;;;;;5.67;2.37;;;;;;;25.13;44.32;100977.78;125230;1093;64328;-73
2021/06/16 09:35:37;;;;;;;5.67;2.30;;;;;;;25.17;45.42;100976.17;124975;1093;65122;-73
2021/06/16 09:38:13;;;;;;;3.85;1.93;;;;;;;25.29;45.19;100975.98;125206;1093;64307;-72
2021/06/16 09:40:43;;;;;;;8.50;2.13;;;;;;;25.40;44.55;100974.11;125303;1093;64972;-72
2021/06/16 09:43:11;;;;;;;4.20;2.00;;;;;;;25.50;44.67;100965.16;125353;1091;64246;-72
2021/06/16 09:45:40;;;;;;;2.40;1.40;;;;;;;25.59;45.31;100969.80;125090;1093;64419;-72
2021/06/16 09:48:34;;;;;;;7.13;2.30;;;;;;;25.61;45.03;100964.92;124817;1093;64291;-74
2021/06/16 09:51:09;;;;;;;6.07;2.40;;;;;;;25.72;45.52;100963.03;125100;1093;64227;-73
2021/06/16 09:53:58;;;;;;;4.00;2.30;;;;;;;25.78;44.53;100953.00;124967;1092;64256;-73
2021/06/16 09:56:26;;;;;;;5.07;2.50;;;;;;;25.83;45.03;100950.27;124763;1093;64208;-72
2021/06/16 09:58:54;;;;;;;5.25;2.20;;;;;;;25.96;45.46;100955.19;124940;1093;64304;-73
2021/06/16 10:01:51;;;;;;;3.27;2.03;;;;;;;26.08;45.09;100951.41;124899;1093;64481;-73
2021/06/16 10:04:41;;;;;;;4.75;2.20;;;;;;;26.24;45.17;100955.72;124967;1093;65008;-73
2021/06/16 10:07:22;;;;;;;4.50;2.60;;;;;;;26.42;44.93;100957.07;124680;1093;64298;-73
2021/06/16 10:10:05;;;;;;;4.63;2.57;;;;;;;26.54;44.64;100949.41;124955;1093;64214;-73
2021/06/16 10:12:41;;;;;;;6.37;2.60;;;;;;;26.71;45.17;100949.12;124806;1093;64345;-72
2021/06/16 10:15:22;;;;;;;4.53;2.20;;;;;;;26.80;45.20;100930.34;124745;1093;64301;-73
2021/06/16 10:17:51;;;;;;;7.23;3.20;;;;;;;26.81;45.41;100942.84;124701;1092;64301;-75
2021/06/16 10:20:20;;;;;;;4.03;3.10;;;;;;;26.94;43.95;100941.42;124931;1093;64303;-74
2021/06/16 10:22:49;;;;;;;5.93;3.93;;;;;;;27.01;44.60;100941.92;124620;1093;64348;-74
2021/06/16 10:25:16;;;;;;;9.67;2.87;;;;;;;27.13;44.66;100945.14;124678;1093;64342;-74
2021/06/16 10:27:58;;;;;;;6.53;3.20;;;;;;;27.26;45.06;100941.02;124708;1093;64415;-74
2021/06/16 10:30:28;;;;;;;8.23;3.97;;;;;;;27.34;44.33;100934.18;124669;1093;64265;-73
2021/06/16 10:32:55;;;;;;;5.40;3.20;;;;;;;27.45;44.48;100930.28;124927;1093;64307;-73
2021/06/16 10:35:24;;;;;;;5.13;2.90;;;;;;;27.50;44.08;100932.99;124870;1093;64406;-75
2021/06/16 10:38:01;;;;;;;4.87;3.00;;;;;;;27.52;44.15;100936.25;125068;1093;64345;-74
2021/06/16 10:40:29;;;;;;;4.97;3.30;;;;;;;27.60;43.78;100929.37;124858;1093;64269;-74
2021/06/16 10:43:03;;;;;;;6.90;3.20;;;;;;;27.71;44.41;100927.38;125010;1093;64747;-73
2021/06/16 10:45:39;;;;;;;9.10;3.60;;;;;;;27.80;44.59;100931.14;124904;1092;64403;-75
2021/06/16 10:48:10;;;;;;;5.87;3.87;;;;;;;27.77;42.97;100926.25;124760;1093;64338;-73
2021/06/16 10:50:46;;;;;;;6.93;3.53;;;;;;;27.81;43.77;100928.11;124914;1093;64383;-74
2021/06/16 10:53:18;;;;;;;9.93;4.10;;;;;;;27.96;42.59;100924.47;124920;1093;64986;-73
2021/06/16 10:55:55;;;;;;;4.27;3.10;;;;;;;28.08;43.98;100920.58;125020;1093;64362;-74
2021/06/16 10:58:27;;;;;;;5.70;3.63;;;;;;;28.12;43.30;100921.63;124806;1092;64301;-73
2021/06/16 11:01:06;;;;;;;5.77;3.53;;;;;;;28.03;43.01;100919.52;124842;1093;64377;-71
2021/06/16 11:03:54;;;;;;;6.97;4.10;;;;;;;28.16;43.07;100912.58;124873;1093;64346;-75
2021/06/16 11:09:05;;;;;;;6.20;3.80;;;;;;;28.57;42.87;100911.36;124885;1093;64231;-77
2021/06/16 11:11:51;;;;;;;6.35;3.70;;;;;;;28.74;42.90;100905.42;124806;1093;64227;-75
2021/06/16 11:14:33;;;;;;;6.53;3.30;;;;;;;28.70;41.57;100899.73;124842;1093;64320;-76
2021/06/16 11:17:00;;;;;;;5.73;3.27;;;;;;;28.62;42.38;100895.72;124869;1093;64339;-76
2021/06/16 11:19:37;;;;;;;4.47;3.93;;;;;;;28.68;42.94;100899.20;124895;1093;64412;-75
2021/06/16 11:22:11;;;;;;;6.07;3.30;;;;;;;28.79;43.13;100897.16;124872;1093;64297;-76
2021/06/16 11:25:17;;;;;;;7.93;3.57;;;;;;;28.96;42.33;100888.47;124833;1093;64230;-76
2021/06/16 11:28:10;;;;;;;6.60;4.13;;;;;;;29.15;42.67;100883.05;124843;1092;64300;-73
2021/06/16 11:31:02;;;;;;;4.73;3.80;;;;;;;29.36;42.03;100883.56;124760;1093;65018;-76
2021/06/16 11:33:35;;;;;;;6.27;3.60;;;;;;;29.37;41.09;100880.55;125001;1093;64301;-74